Main page
METAR-TAF:

METAR-TAF

Airports :

Southampton Airport

Southampton, England

latitude: 50-54N, longitude: 001-24W, elevation: 9 m

Current weather observation

The report was made 5 hours and 22 minutes ago, at 20:20 UTC
Wind 1 kt from variable directions
Temperature 9°C
Humidity 93%
Pressure 997 hPa
Visibility 10 km or more
Few clouds at a height of 3500 ft

METAR: EGHI 252020Z VRB01KT 9999 FEW035 09/08 Q0997

Time: 01:42 (01:42 UTC)

Forecast

The report was made 5 hours and 45 minutes ago, at 19:57 UTC
Forecast valid from 25 at 21 UTC to 25 at 23 UTC
Wind 7 kt from the South/Southwest
Visibility 10 km or more
Scattered clouds at a height of 3000 ft
Temporary
from 25 at 21 UTC to 25 at 23 UTC
Wind 15 kt from the Southwest with gusts up to 25 kt
Visibility: 7000 m
rain showers
Probability 30% :
Temporary
from 25 at 21 UTC to 25 at 23 UTC
Visibility: 3000 m
thunderstorm, heavy rain

TAF: EGHI 251957Z 2521/2523 20007KT 9999 SCT030 TEMPO 2521/2523 22015G25KT 7000 SHRA PROB30 TEMPO 2521/2523 3000 +TSRA

Weather observations and forecasts of more than 4000 airports (METAR and TAF reports).

The available stations are represented by yellow and red dots on the map.

Hover mouse over dot to see the name of the station.

Then click to see weather observations and forecasts.

To change the map : click on the green buttons with a black cross to zoom in, on the green button with a dash to zoom out, or on the green arrows for adjacent maps.


METAR-TAF: